Time;durP1;ratioP1;P1;durP2;ratioP2;P2;SDS_P1;SDS_P2;PMS_P1;PMS_P2;Temp;Humidity;BMP_temperature;BMP_pressure;BME280_temperature;BME280_humidity;BME280_pressure;Samples;Min_cycle;Max_cycle;Signal;HPM_P1;HPM_P2
2022/04/03 00:00:16;;;;;;;8.73;5.57;;;;;;;;;;4939252;28;20067;-67
2022/04/03 00:02:45;;;;;;;6.63;5.50;;;;;;;;;;4939004;28;20062;-66
2022/04/03 00:05:15;;;;;;;4.40;4.00;;;;;;;;;;4939145;29;20078;-66
2022/04/03 00:07:44;;;;;;;5.07;4.57;;;;;;;;;;4938753;29;20507;-66
2022/04/03 00:10:12;;;;;;;5.30;4.53;;;;;;;;;;4938817;29;20130;-66
2022/04/03 00:12:41;;;;;;;6.72;4.80;;;;;;;;;;4938780;29;20051;-67
2022/04/03 00:15:10;;;;;;;6.35;4.55;;;;;;;;;;4938635;29;20082;-66
2022/04/03 00:17:40;;;;;;;6.65;5.18;;;;;;;;;;4938992;29;20047;-66
2022/04/03 00:20:11;;;;;;;10.10;4.75;;;;;;;;;;4938747;29;20054;-66
2022/04/03 00:22:38;;;;;;;7.43;5.70;;;;;;;;;;4945300;29;20134;-66
2022/04/03 00:25:06;;;;;;;6.38;4.90;;;;;;;;;;4938949;29;20403;-67
2022/04/03 00:27:35;;;;;;;5.47;4.65;;;;;;;;;;4938730;28;20439;-67
2022/04/03 00:30:03;;;;;;;7.50;4.65;;;;;;;;;;4938799;28;20055;-67
2022/04/03 00:32:31;;;;;;;5.63;4.80;;;;;;;;;;4937933;28;20430;-66
2022/04/03 00:35:03;;;;;;;6.32;4.72;;;;;;;;;;4938588;29;20047;-67
2022/04/03 00:37:31;;;;;;;5.50;4.55;;;;;;;;;;4937749;29;20415;-67
2022/04/03 00:39:59;;;;;;;5.25;4.68;;;;;;;;;;4938313;29;20499;-67
2022/04/03 00:42:29;;;;;;;7.03;5.03;;;;;;;;;;4938018;29;20062;-67
2022/04/03 00:44:57;;;;;;;5.45;4.95;;;;;;;;;;4938238;28;20052;-67
2022/04/03 00:47:26;;;;;;;6.10;4.82;;;;;;;;;;4938358;29;20079;-66
2022/04/03 00:49:56;;;;;;;5.30;4.72;;;;;;;;;;4936739;29;20526;-66
2022/04/03 00:52:24;;;;;;;5.85;5.25;;;;;;;;;;4938356;29;20055;-67
2022/04/03 00:54:54;;;;;;;6.13;5.47;;;;;;;;;;4942178;29;20074;-67
2022/04/03 00:57:23;;;;;;;9.75;4.85;;;;;;;;;;4955515;29;20052;-67
2022/04/03 00:59:54;;;;;;;5.10;4.60;;;;;;;;;;4950039;28;20069;-67
2022/04/03 01:02:23;;;;;;;7.00;5.00;;;;;;;;;;4944128;28;20070;-67
2022/04/03 01:04:53;;;;;;;7.15;4.57;;;;;;;;;;4944526;28;20047;-67
2022/04/03 01:07:22;;;;;;;7.75;5.28;;;;;;;;;;4952198;29;20581;-67
2022/04/03 01:09:50;;;;;;;6.07;5.43;;;;;;;;;;4948374;29;20057;-67
2022/04/03 01:12:19;;;;;;;5.63;4.72;;;;;;;;;;4946252;29;20047;-67
2022/04/03 01:15:10;;;;;;;8.30;5.65;;;;;;;;;;4943810;29;20529;-67
2022/04/03 01:17:39;;;;;;;4.70;4.30;;;;;;;;;;4947161;28;20047;-67
2022/04/03 01:20:09;;;;;;;5.43;4.93;;;;;;;;;;4945866;28;20067;-67
2022/04/03 01:22:37;;;;;;;5.95;4.68;;;;;;;;;;4946043;28;20062;-67
2022/04/03 01:25:10;;;;;;;6.30;5.60;;;;;;;;;;4951478;28;20410;-67
2022/04/03 01:27:39;;;;;;;4.75;4.38;;;;;;;;;;4948421;28;20082;-67
2022/04/03 01:30:10;;;;;;;6.30;5.32;;;;;;;;;;4951744;28;20396;-67
2022/04/03 01:32:40;;;;;;;5.88;5.22;;;;;;;;;;4948856;28;20109;-68
2022/04/03 01:35:10;;;;;;;8.02;5.47;;;;;;;;;;4949762;29;20058;-67
2022/04/03 01:37:40;;;;;;;6.88;4.72;;;;;;;;;;4950387;28;20043;-67
2022/04/03 01:40:10;;;;;;;6.45;5.05;;;;;;;;;;4943453;29;20047;-68
2022/04/03 01:42:39;;;;;;;5.85;4.82;;;;;;;;;;4948519;28;20053;-68
2022/04/03 01:45:09;;;;;;;5.80;5.13;;;;;;;;;;4942881;29;20047;-68
2022/04/03 01:47:37;;;;;;;5.95;5.45;;;;;;;;;;4950365;28;20074;-67
2022/04/03 01:50:06;;;;;;;8.00;5.53;;;;;;;;;;4942269;29;20051;-67
2022/04/03 01:52:35;;;;;;;5.90;4.78;;;;;;;;;;4948544;28;20083;-67
2022/04/03 01:55:07;;;;;;;5.95;5.00;;;;;;;;;;4945043;28;20055;-66
2022/04/03 01:57:36;;;;;;;7.78;5.57;;;;;;;;;;4943250;29;20051;-66
2022/04/03 02:00:07;;;;;;;8.75;5.35;;;;;;;;;;4946360;28;20103;-66
2022/04/03 02:02:36;;;;;;;7.47;6.43;;;;;;;;;;4948131;28;20051;-66
2022/04/03 02:05:05;;;;;;;6.40;5.80;;;;;;;;;;4946672;29;20063;-66
2022/04/03 02:07:34;;;;;;;10.45;5.88;;;;;;;;;;4942538;29;20059;-66
2022/04/03 02:10:08;;;;;;;7.20;6.05;;;;;;;;;;4948171;29;20098;-66
2022/04/03 02:12:37;;;;;;;9.90;5.65;;;;;;;;;;4948168;29;20447;-65
2022/04/03 02:15:06;;;;;;;9.20;6.10;;;;;;;;;;4946177;28;20066;-66
2022/04/03 02:17:36;;;;;;;7.15;6.45;;;;;;;;;;4942465;28;20115;-65
2022/04/03 02:20:09;;;;;;;7.40;6.68;;;;;;;;;;4947505;28;20103;-66
2022/04/03 02:22:37;;;;;;;7.65;6.25;;;;;;;;;;4945773;28;20062;-66
2022/04/03 02:25:09;;;;;;;6.70;5.45;;;;;;;;;;4945466;28;20082;-66
2022/04/03 02:27:39;;;;;;;7.88;5.90;;;;;;;;;;4940610;29;20052;-66
2022/04/03 02:30:09;;;;;;;7.68;6.40;;;;;;;;;;4937202;29;20139;-66
2022/04/03 02:32:37;;;;;;;8.15;7.35;;;;;;;;;;4936556;28;20451;-66
2022/04/03 02:35:07;;;;;;;9.98;6.75;;;;;;;;;;4936929;29;20507;-66
2022/04/03 02:37:36;;;;;;;7.05;6.45;;;;;;;;;;4936641;29;20090;-66
2022/04/03 02:40:08;;;;;;;9.45;6.03;;;;;;;;;;4937281;29;20051;-65
2022/04/03 02:42:37;;;;;;;6.80;5.50;;;;;;;;;;4936722;29;20062;-66
2022/04/03 02:45:05;;;;;;;6.75;5.97;;;;;;;;;;4936538;29;20062;-65
2022/04/03 02:47:34;;;;;;;8.60;6.75;;;;;;;;;;4936100;29;20048;-66
2022/04/03 02:50:04;;;;;;;8.93;5.40;;;;;;;;;;4936512;29;20044;-66
2022/04/03 02:52:33;;;;;;;8.15;6.68;;;;;;;;;;4936515;29;20499;-66
2022/04/03 02:55:04;;;;;;;7.38;6.65;;;;;;;;;;4936708;29;20182;-66
2022/04/03 02:57:32;;;;;;;10.02;6.93;;;;;;;;;;4940133;28;20061;-66
2022/04/03 03:00:02;;;;;;;7.28;6.28;;;;;;;;;;4940045;29;20135;-66
2022/04/03 03:02:31;;;;;;;6.43;5.82;;;;;;;;;;4940441;29;20047;-67
2022/04/03 03:05:00;;;;;;;6.65;6.05;;;;;;;;;;4938919;29;20099;-66
2022/04/03 03:07:38;;;;;;;7.90;6.05;;;;;;;;;;4939003;29;20091;-66
2022/04/03 03:10:13;;;;;;;8.38;5.95;;;;;;;;;;4951347;29;20047;-66
2022/04/03 03:12:42;;;;;;;7.43;6.53;;;;;;;;;;4958977;28;20050;-66
2022/04/03 03:15:13;;;;;;;6.22;5.55;;;;;;;;;;4959104;28;20415;-67
2022/04/03 03:17:41;;;;;;;8.10;6.18;;;;;;;;;;4959105;28;20451;-66
2022/04/03 03:20:10;;;;;;;6.63;6.00;;;;;;;;;;4958926;28;20062;-66
2022/04/03 03:22:40;;;;;;;12.35;6.10;;;;;;;;;;4958448;28;20085;-66
2022/04/03 03:25:09;;;;;;;6.72;5.50;;;;;;;;;;4958643;28;20048;-66
2022/04/03 03:27:39;;;;;;;6.53;5.93;;;;;;;;;;4958212;28;20051;-66
2022/04/03 03:30:08;;;;;;;6.80;6.10;;;;;;;;;;4941960;29;20130;-66
2022/04/03 03:32:37;;;;;;;7.32;6.68;;;;;;;;;;4958266;28;20044;-66
2022/04/03 03:35:05;;;;;;;8.05;5.65;;;;;;;;;;4958438;28;20503;-66
2022/04/03 03:37:36;;;;;;;8.27;6.78;;;;;;;;;;4957960;28;20506;-66
2022/04/03 03:40:06;;;;;;;8.52;5.60;;;;;;;;;;4958335;28;20051;-66
2022/04/03 03:42:40;;;;;;;6.13;5.55;;;;;;;;;;4958248;28;20078;-67
2022/04/03 03:45:11;;;;;;;6.60;5.97;;;;;;;;;;4958209;28;20051;-66
2022/04/03 03:47:40;;;;;;;7.40;6.65;;;;;;;;;;4957433;28;20515;-66
2022/04/03 03:50:10;;;;;;;13.35;7.70;;;;;;;;;;4959095;28;20486;-66
2022/04/03 03:52:41;;;;;;;7.75;6.15;;;;;;;;;;4939368;28;20055;-65
2022/04/03 03:55:09;;;;;;;7.95;6.25;;;;;;;;;;4939588;28;20047;-66
2022/04/03 03:57:39;;;;;;;8.32;7.50;;;;;;;;;;4939039;29;20051;-66
2022/04/03 04:00:11;;;;;;;12.55;8.07;;;;;;;;;;4938950;29;20107;-66
2022/04/03 04:02:43;;;;;;;7.30;6.60;;;;;;;;;;4940180;28;20048;-66
2022/04/03 04:05:12;;;;;;;9.40;6.38;;;;;;;;;;4938867;29;20529;-67
2022/04/03 04:07:47;;;;;;;7.57;6.47;;;;;;;;;;4944116;28;20082;-67
2022/04/03 04:10:18;;;;;;;7.78;6.65;;;;;;;;;;4957662;28;20058;-67
2022/04/03 04:12:47;;;;;;;7.40;6.18;;;;;;;;;;4958006;28;20047;-67
2022/04/03 04:15:17;;;;;;;9.27;7.50;;;;;;;;;;4957643;28;20051;-67
2022/04/03 04:17:46;;;;;;;7.25;6.63;;;;;;;;;;4958333;28;20074;-66
2022/04/03 04:20:21;;;;;;;8.32;7.28;;;;;;;;;;4957339;28;20079;-66
2022/04/03 04:22:53;;;;;;;7.70;6.95;;;;;;;;;;4957857;28;20059;-66
2022/04/03 04:25:22;;;;;;;7.90;6.72;;;;;;;;;;4957256;28;20043;-66
2022/04/03 04:27:50;;;;;;;8.60;6.35;;;;;;;;;;4957390;28;20055;-66
2022/04/03 04:30:19;;;;;;;7.78;7.07;;;;;;;;;;4957532;28;20047;-66
2022/04/03 04:32:47;;;;;;;8.55;6.60;;;;;;;;;;4957207;28;20043;-67
2022/04/03 04:35:16;;;;;;;7.63;6.63;;;;;;;;;;4957364;28;20043;-67
2022/04/03 04:37:48;;;;;;;10.38;7.25;;;;;;;;;;4955223;28;20059;-67
2022/04/03 04:40:17;;;;;;;9.25;7.20;;;;;;;;;;4957021;28;20418;-67
2022/04/03 04:42:47;;;;;;;8.68;7.78;;;;;;;;;;4956648;28;20043;-67
2022/04/03 04:45:17;;;;;;;8.70;7.80;;;;;;;;;;4955501;28;20414;-66
2022/04/03 04:47:48;;;;;;;10.43;8.18;;;;;;;;;;4949291;29;20082;-66
2022/04/03 04:50:16;;;;;;;8.63;6.72;;;;;;;;;;4943709;29;20051;-66
2022/04/03 04:52:45;;;;;;;8.25;7.45;;;;;;;;;;4938574;28;20103;-67
2022/04/03 04:55:13;;;;;;;10.13;8.45;;;;;;;;;;4938410;28;20055;-66
2022/04/03 04:57:42;;;;;;;8.10;7.10;;;;;;;;;;4938541;29;20408;-66
2022/04/03 05:00:17;;;;;;;8.68;7.88;;;;;;;;;;4937136;29;20122;-66
2022/04/03 05:02:46;;;;;;;8.63;7.75;;;;;;;;;;4938337;28;20522;-66
2022/04/03 05:05:18;;;;;;;9.35;8.43;;;;;;;;;;4944154;29;20082;-66
2022/04/03 05:07:51;;;;;;;9.55;7.97;;;;;;;;;;4938059;29;20110;-66
2022/04/03 05:10:20;;;;;;;8.82;8.02;;;;;;;;;;4938037;29;20056;-67
2022/04/03 05:12:50;;;;;;;9.27;8.45;;;;;;;;;;4936705;29;20048;-66
2022/04/03 05:15:18;;;;;;;8.43;7.55;;;;;;;;;;4939783;29;20407;-67
2022/04/03 05:17:47;;;;;;;8.98;8.18;;;;;;;;;;4956388;28;20063;-66
2022/04/03 05:20:16;;;;;;;9.48;8.13;;;;;;;;;;4955109;28;20486;-66
2022/04/03 05:22:45;;;;;;;13.55;9.05;;;;;;;;;;4956051;28;20090;-67
2022/04/03 05:25:14;;;;;;;13.00;9.77;;;;;;;;;;4956408;28;20039;-66
2022/04/03 05:27:44;;;;;;;9.85;8.85;;;;;;;;;;4937117;29;20056;-66
2022/04/03 05:30:14;;;;;;;9.43;8.00;;;;;;;;;;4952559;28;20558;-67
2022/04/03 05:32:43;;;;;;;8.48;7.78;;;;;;;;;;4956535;28;20058;-66
2022/04/03 05:35:13;;;;;;;10.25;8.00;;;;;;;;;;4939060;28;20139;-66
2022/04/03 05:37:45;;;;;;;10.65;8.68;;;;;;;;;;4936982;28;20059;-67
2022/04/03 05:40:16;;;;;;;10.15;8.27;;;;;;;;;;4937130;29;20075;-67
2022/04/03 05:42:46;;;;;;;9.45;8.45;;;;;;;;;;4937224;28;20070;-66
2022/04/03 05:45:14;;;;;;;14.88;9.20;;;;;;;;;;4937226;29;20082;-66
2022/04/03 05:47:44;;;;;;;10.15;8.40;;;;;;;;;;4937053;28;20055;-66
2022/04/03 05:50:14;;;;;;;8.93;8.05;;;;;;;;;;4937345;28;20059;-67
2022/04/03 05:52:46;;;;;;;14.50;9.23;;;;;;;;;;4950448;29;20410;-67
2022/04/03 05:55:16;;;;;;;11.95;9.95;;;;;;;;;;4955096;29;20051;-67
2022/04/03 05:57:48;;;;;;;10.35;9.25;;;;;;;;;;4955311;28;20074;-67
2022/04/03 06:00:17;;;;;;;10.23;9.07;;;;;;;;;;4955301;28;20418;-67
2022/04/03 06:02:51;;;;;;;9.13;8.15;;;;;;;;;;4954501;28;20059;-66
2022/04/03 06:05:22;;;;;;;9.60;8.68;;;;;;;;;;4952512;28;20048;-65
2022/04/03 06:07:51;;;;;;;9.90;8.85;;;;;;;;;;4946734;28;20061;-64
2022/04/03 06:10:22;;;;;;;9.38;8.48;;;;;;;;;;4951015;28;20051;-66
2022/04/03 06:13:07;;;;;;;9.70;8.73;;;;;;;;;;4944270;29;21994;-66
2022/04/03 06:15:37;;;;;;;13.02;9.05;;;;;;;;;;4943452;29;20134;-66
2022/04/03 06:18:13;;;;;;;16.10;12.18;;;;;;;;;;4950525;28;20487;-65
2022/04/03 06:20:50;;;;;;;13.13;10.95;;;;;;;;;;4947617;28;20431;-66
2022/04/03 06:23:21;;;;;;;11.70;10.57;;;;;;;;;;4946051;29;20066;-66
2022/04/03 06:25:57;;;;;;;11.75;10.55;;;;;;;;;;4950179;29;20503;-66
2022/04/03 06:28:25;;;;;;;12.75;11.48;;;;;;;;;;4944551;28;20415;-66
2022/04/03 06:30:55;;;;;;;13.05;10.98;;;;;;;;;;4950060;28;20063;-65
2022/04/03 06:33:24;;;;;;;12.70;10.77;;;;;;;;;;4952538;28;20534;-66
2022/04/03 06:35:56;;;;;;;11.68;10.52;;;;;;;;;;4949298;28;20098;-66
2022/04/03 06:38:26;;;;;;;11.48;10.27;;;;;;;;;;4947048;29;20111;-66
2022/04/03 06:40:58;;;;;;;13.82;10.13;;;;;;;;;;4947608;29;20074;-66
2022/04/03 06:43:27;;;;;;;15.80;9.82;;;;;;;;;;4943782;28;20074;-66
2022/04/03 06:45:57;;;;;;;12.82;9.80;;;;;;;;;;4943625;29;20415;-66
2022/04/03 06:48:27;;;;;;;10.50;9.50;;;;;;;;;;4943504;28;20054;-67
2022/04/03 06:50:56;;;;;;;11.75;9.80;;;;;;;;;;4946164;29;20054;-67
2022/04/03 06:53:25;;;;;;;12.50;10.68;;;;;;;;;;4947632;28;20151;-66
2022/04/03 06:55:53;;;;;;;11.93;9.60;;;;;;;;;;4943405;29;20055;-67
2022/04/03 06:58:23;;;;;;;11.68;10.15;;;;;;;;;;4942854;28;20507;-66
2022/04/03 07:00:54;;;;;;;11.90;9.77;;;;;;;;;;4942796;28;20523;-67
2022/04/03 07:03:22;;;;;;;11.18;10.00;;;;;;;;;;4946098;28;20114;-66
2022/04/03 07:05:50;;;;;;;11.60;10.43;;;;;;;;;;4945551;29;20132;-66
2022/04/03 07:08:22;;;;;;;21.45;10.27;;;;;;;;;;4942766;29;20047;-66
2022/04/03 07:10:50;;;;;;;13.50;9.50;;;;;;;;;;4947147;29;20114;-67
2022/04/03 07:13:19;;;;;;;11.32;10.15;;;;;;;;;;4946660;29;20051;-64
2022/04/03 07:15:49;;;;;;;10.93;9.75;;;;;;;;;;4944166;28;20115;-66
2022/04/03 07:18:18;;;;;;;9.82;8.68;;;;;;;;;;4943278;28;20508;-64
2022/04/03 07:20:48;;;;;;;13.40;8.27;;;;;;;;;;4944399;29;20062;-63
2022/04/03 07:23:22;;;;;;;10.77;9.68;;;;;;;;;;4941826;29;20062;-65
2022/04/03 07:25:56;;;;;;;10.07;9.02;;;;;;;;;;4948050;28;20594;-66
2022/04/03 07:28:25;;;;;;;8.63;7.82;;;;;;;;;;4943642;28;20518;-65
2022/04/03 07:30:54;;;;;;;12.93;8.93;;;;;;;;;;4944020;29;20047;-65
2022/04/03 07:33:22;;;;;;;9.98;8.98;;;;;;;;;;4953084;28;20058;-66
2022/04/03 07:35:51;;;;;;;10.57;9.02;;;;;;;;;;4942227;28;20103;-67
2022/04/03 07:38:19;;;;;;;10.27;8.60;;;;;;;;;;4935547;29;20052;-66
2022/04/03 07:40:48;;;;;;;8.85;8.05;;;;;;;;;;4942951;28;20123;-67
2022/04/03 07:43:23;;;;;;;12.43;8.52;;;;;;;;;;4955361;28;20134;-66
2022/04/03 07:45:55;;;;;;;9.30;8.15;;;;;;;;;;4949825;28;20530;-68
2022/04/03 07:48:24;;;;;;;10.70;9.30;;;;;;;;;;4939386;28;20048;-67
2022/04/03 07:50:53;;;;;;;8.88;8.15;;;;;;;;;;4939838;28;20290;-67
2022/04/03 07:53:22;;;;;;;12.98;9.18;;;;;;;;;;4939220;28;20047;-67
2022/04/03 07:55:50;;;;;;;18.02;16.15;;;;;;;;;;4948366;28;20130;-66
2022/04/03 07:58:18;;;;;;;12.00;9.63;;;;;;;;;;4956276;29;20399;-65
2022/04/03 08:00:47;;;;;;;20.02;16.60;;;;;;;;;;4946619;29;20055;-66
2022/04/03 08:03:16;;;;;;;17.77;15.80;;;;;;;;;;4938862;29;20058;-67
2022/04/03 08:05:44;;;;;;;10.73;9.63;;;;;;;;;;4943559;28;20078;-67
2022/04/03 08:08:12;;;;;;;9.68;8.82;;;;;;;;;;4957322;28;20055;-67
2022/04/03 08:10:43;;;;;;;17.77;15.88;;;;;;;;;;4956692;28;20415;-67
2022/04/03 08:13:16;;;;;;;11.98;9.88;;;;;;;;;;4940397;29;20044;-67
2022/04/03 08:15:45;;;;;;;16.35;13.70;;;;;;;;;;4952739;28;20054;-68
2022/04/03 08:18:13;;;;;;;10.38;9.30;;;;;;;;;;4958050;28;20495;-67
2022/04/03 08:20:43;;;;;;;9.23;8.43;;;;;;;;;;4957092;28;20055;-66
2022/04/03 08:23:12;;;;;;;11.98;8.90;;;;;;;;;;4940620;29;20106;-66
2022/04/03 08:25:39;;;;;;;10.48;9.43;;;;;;;;;;4957184;28;20047;-66
2022/04/03 08:28:07;;;;;;;9.68;8.38;;;;;;;;;;4942205;29;20110;-66
2022/04/03 08:30:36;;;;;;;10.77;7.38;;;;;;;;;;4941470;29;20067;-65
2022/04/03 08:33:06;;;;;;;8.85;7.95;;;;;;;;;;4938394;29;20086;-65
2022/04/03 08:35:40;;;;;;;8.55;7.75;;;;;;;;;;4941618;28;20524;-65
2022/04/03 08:38:08;;;;;;;9.50;8.30;;;;;;;;;;4948590;28;20551;-66
2022/04/03 08:40:36;;;;;;;13.40;8.57;;;;;;;;;;4941292;29;20063;-63
2022/04/03 08:43:04;;;;;;;9.15;7.70;;;;;;;;;;4946038;29;20079;-64
2022/04/03 08:45:33;;;;;;;8.82;7.13;;;;;;;;;;4957320;28;20051;-63
2022/04/03 08:48:02;;;;;;;9.82;8.35;;;;;;;;;;4953675;29;20075;-63
2022/04/03 08:50:36;;;;;;;8.40;7.55;;;;;;;;;;4948968;29;20055;-63
2022/04/03 08:53:08;;;;;;;8.55;6.40;;;;;;;;;;4951228;29;20090;-63
2022/04/03 08:55:37;;;;;;;10.88;6.00;;;;;;;;;;4951815;28;20067;-63
2022/04/03 08:58:05;;;;;;;6.15;4.80;;;;;;;;;;4944714;28;20062;-63
2022/04/03 09:00:34;;;;;;;6.70;5.50;;;;;;;;;;4948626;28;20055;-65
2022/04/03 09:03:01;;;;;;;10.68;5.68;;;;;;;;;;4947578;28;20554;-63
2022/04/03 09:05:39;;;;;;;5.72;5.00;;;;;;;;;;4951303;28;20118;-63
2022/04/03 09:08:07;;;;;;;5.72;4.72;;;;;;;;;;4944155;29;20400;-63
2022/04/03 09:10:36;;;;;;;5.22;4.32;;;;;;;;;;4951614;28;20066;-63
2022/04/03 09:13:03;;;;;;;5.63;4.75;;;;;;;;;;4940879;28;20066;-63
2022/04/03 09:15:31;;;;;;;7.03;4.95;;;;;;;;;;4946332;29;20055;-64
2022/04/03 09:18:03;;;;;;;5.55;5.05;;;;;;;;;;4946880;29;20079;-62
2022/04/03 09:20:37;;;;;;;5.45;4.95;;;;;;;;;;4942463;29;20484;-63
2022/04/03 09:23:07;;;;;;;6.70;5.15;;;;;;;;;;4941843;29;20520;-60
2022/04/03 09:25:41;;;;;;;5.90;5.30;;;;;;;;;;4947033;29;20047;-64
2022/04/03 09:28:12;;;;;;;12.67;7.57;;;;;;;;;;4946449;29;20048;-64
2022/04/03 09:30:46;;;;;;;8.80;7.75;;;;;;;;;;4943801;29;20095;-66
2022/04/03 09:33:19;;;;;;;9.57;8.63;;;;;;;;;;4950625;28;20534;-65
2022/04/03 09:35:54;;;;;;;10.50;8.48;;;;;;;;;;4950189;29;20078;-66
2022/04/03 09:38:23;;;;;;;8.95;7.65;;;;;;;;;;4944443;28;20070;-65
2022/04/03 09:40:52;;;;;;;8.82;8.02;;;;;;;;;;4941030;28;20566;-64
2022/04/03 09:43:28;;;;;;;9.65;7.35;;;;;;;;;;4950956;28;20566;-68
2022/04/03 09:46:19;;;;;;;10.18;8.95;;;;;;;;;;4944325;29;20106;-68
2022/04/03 09:48:48;;;;;;;7.97;7.28;;;;;;;;;;4945150;29;20074;-68
2022/04/03 09:51:22;;;;;;;7.68;6.97;;;;;;;;;;4945840;28;20061;-67
2022/04/03 09:54:02;;;;;;;6.72;6.05;;;;;;;;;;4952206;29;20069;-67
2022/04/03 09:56:34;;;;;;;5.93;5.13;;;;;;;;;;4950527;29;20051;-65
2022/04/03 09:59:07;;;;;;;9.65;5.30;;;;;;;;;;4950585;28;20059;-67
2022/04/03 10:01:41;;;;;;;5.00;4.53;;;;;;;;;;4944023;28;20059;-67
2022/04/03 10:04:14;;;;;;;5.50;4.95;;;;;;;;;;4941471;29;20571;-68
2022/04/03 10:06:43;;;;;;;7.13;4.67;;;;;;;;;;4939929;28;20106;-68
2022/04/03 10:09:15;;;;;;;5.63;4.78;;;;;;;;;;4951191;29;20129;-68
2022/04/03 10:11:44;;;;;;;5.43;4.75;;;;;;;;;;4949478;29;20142;-68
2022/04/03 10:14:13;;;;;;;4.93;4.50;;;;;;;;;;4942812;29;20471;-67
2022/04/03 10:16:42;;;;;;;7.13;4.32;;;;;;;;;;4945651;29;20047;-66
2022/04/03 10:19:12;;;;;;;5.82;4.07;;;;;;;;;;4949354;28;20051;-68
2022/04/03 10:21:40;;;;;;;5.82;3.75;;;;;;;;;;4944035;29;20051;-67
2022/04/03 10:24:16;;;;;;;6.55;4.18;;;;;;;;;;4887309;28;20507;-66
2022/04/03 10:26:56;;;;;;;4.57;4.13;;;;;;;;;;4946460;29;20051;-68
2022/04/03 10:29:25;;;;;;;3.50;3.20;;;;;;;;;;4945932;29;20051;-67
2022/04/03 10:32:03;;;;;;;6.65;4.95;;;;;;;;;;4949705;28;20051;-66
2022/04/03 10:34:47;;;;;;;6.20;3.22;;;;;;;;;;4950468;28;20039;-65
2022/04/03 10:37:37;;;;;;;10.52;3.53;;;;;;;;;;4948124;29;20047;-66
2022/04/03 10:40:16;;;;;;;5.47;2.92;;;;;;;;;;4945418;29;20130;-67
2022/04/03 10:43:01;;;;;;;3.60;3.30;;;;;;;;;;4944319;28;20515;-67
2022/04/03 10:45:46;;;;;;;3.20;2.53;;;;;;;;;;4944649;29;20126;-67
2022/04/03 10:48:20;;;;;;;3.80;2.20;;;;;;;;;;4944462;29;20059;-67
2022/04/03 10:51:01;;;;;;;2.78;2.50;;;;;;;;;;4946177;29;20106;-67
2022/04/03 10:53:32;;;;;;;3.03;2.22;;;;;;;;;;4949417;29;20055;-67
2022/04/03 10:56:07;;;;;;;3.83;2.88;;;;;;;;;;4945141;28;20142;-67
2022/04/03 10:59:06;;;;;;;3.63;3.00;;;;;;;;;;4939866;29;20075;-67
2022/04/03 11:01:35;;;;;;;4.45;2.25;;;;;;;;;;4941607;28;20059;-67
2022/04/03 11:04:13;;;;;;;2.13;1.90;;;;;;;;;;4948913;29;20478;-68
2022/04/03 11:06:43;;;;;;;2.50;2.30;;;;;;;;;;4955010;28;20451;-68
2022/04/03 11:09:35;;;;;;;2.60;2.40;;;;;;;;;;4953508;29;20051;-68
2022/04/03 11:12:05;;;;;;;2.08;1.63;;;;;;;;;;4953679;29;20134;-67
2022/04/03 11:14:49;;;;;;;3.35;2.67;;;;;;;;;;4953705;28;20122;-66
2022/04/03 11:17:37;;;;;;;3.25;2.47;;;;;;;;;;4956179;28;20371;-68
2022/04/03 11:20:07;;;;;;;3.42;1.95;;;;;;;;;;4954865;28;20066;-70
2022/04/03 11:22:36;;;;;;;1.92;1.73;;;;;;;;;;4939725;28;20047;-68
2022/04/03 11:25:07;;;;;;;3.78;2.20;;;;;;;;;;4939571;28;20051;-70
2022/04/03 11:27:39;;;;;;;2.92;2.40;;;;;;;;;;4943231;28;20048;-71
2022/04/03 11:30:10;;;;;;;3.63;2.20;;;;;;;;;;4958901;28;20047;-73
2022/04/03 11:32:40;;;;;;;4.25;2.67;;;;;;;;;;4958929;28;20134;-71
2022/04/03 11:35:09;;;;;;;7.43;2.25;;;;;;;;;;4959163;28;20099;-73
2022/04/03 11:37:37;;;;;;;3.75;1.70;;;;;;;;;;4957034;29;20055;-72
2022/04/03 11:40:08;;;;;;;4.60;2.00;;;;;;;;;;4958498;28;20048;-72
2022/04/03 11:42:38;;;;;;;2.55;2.00;;;;;;;;;;4958024;28;20058;-72
2022/04/03 11:45:10;;;;;;;2.88;2.58;;;;;;;;;;4958596;28;20134;-72
2022/04/03 11:47:39;;;;;;;3.65;2.55;;;;;;;;;;4958365;28;20079;-72
2022/04/03 11:50:11;;;;;;;4.18;2.15;;;;;;;;;;4957861;28;20541;-71
2022/04/03 11:52:41;;;;;;;2.72;2.33;;;;;;;;;;4954423;28;20095;-69
2022/04/03 11:55:10;;;;;;;6.57;5.78;;;;;;;;;;4938550;29;20050;-71
2022/04/03 11:57:39;;;;;;;2.33;2.13;;;;;;;;;;4937760;29;20048;-71
2022/04/03 12:00:11;;;;;;;2.47;2.22;;;;;;;;;;4939333;29;20060;-70
2022/04/03 12:02:42;;;;;;;2.22;2.03;;;;;;;;;;4939012;29;20067;-71
2022/04/03 12:05:10;;;;;;;2.90;2.22;;;;;;;;;;4939001;28;20052;-69
2022/04/03 12:07:38;;;;;;;3.20;2.60;;;;;;;;;;4938734;28;20059;-70
2022/04/03 12:10:08;;;;;;;4.82;3.10;;;;;;;;;;4947650;29;20527;-69
2022/04/03 12:12:37;;;;;;;3.30;3.00;;;;;;;;;;4941987;29;20055;-69
2022/04/03 12:15:11;;;;;;;2.88;2.30;;;;;;;;;;4942246;29;20447;-69
2022/04/03 12:17:42;;;;;;;3.95;2.83;;;;;;;;;;4941772;29;20118;-69
2022/04/03 12:20:12;;;;;;;2.90;2.60;;;;;;;;;;4943070;29;20048;-69
2022/04/03 12:22:43;;;;;;;3.28;2.85;;;;;;;;;;4940660;28;20040;-69
2022/04/03 12:25:12;;;;;;;4.13;2.67;;;;;;;;;;4940384;29;20040;-69
2022/04/03 12:27:41;;;;;;;8.25;3.92;;;;;;;;;;4945152;28;20056;-69
2022/04/03 12:30:11;;;;;;;5.15;3.85;;;;;;;;;;4941644;29;20059;-69
2022/04/03 12:32:41;;;;;;;3.28;2.58;;;;;;;;;;4938655;29;20063;-69
2022/04/03 12:35:09;;;;;;;14.73;4.80;;;;;;;;;;4941462;29;20059;-69
2022/04/03 12:37:42;;;;;;;3.13;2.65;;;;;;;;;;4946038;29;20135;-70
2022/04/03 12:40:15;;;;;;;;;;;;;;;;;;4941948;29;20055;-71
2022/04/03 12:42:45;;;;;;;5.05;2.83;;;;;;;;;;4939105;28;19930;-72
2022/04/03 12:45:22;;;;;;;4.65;2.78;;;;;;;;;;4940077;29;20044;-71
2022/04/03 12:47:58;;;;;;;3.85;3.30;;;;;;;;;;4941249;29;20055;-71
2022/04/03 12:50:30;;;;;;;;;;;;;;;;;;4943338;29;20055;-68
2022/04/03 12:53:01;;;;;;;2.90;2.30;;;;;;;;;;4939803;28;19930;-70
2022/04/03 12:55:41;;;;;;;3.47;3.00;;;;;;;;;;4940406;29;20040;-70
2022/04/03 12:58:29;;;;;;;2.40;2.20;;;;;;;;;;4939438;29;20052;-70
2022/04/03 13:01:15;;;;;;;3.30;2.50;;;;;;;;;;4941162;28;20048;-70
2022/04/03 13:03:49;;;;;;;4.60;2.17;;;;;;;;;;4939720;29;20052;-69
2022/04/03 13:06:39;;;;;;;3.38;2.90;;;;;;;;;;4939451;29;20056;-68
2022/04/03 13:09:08;;;;;;;2.00;1.75;;;;;;;;;;4941368;29;20178;-69
2022/04/03 13:11:43;;;;;;;2.10;1.90;;;;;;;;;;4943989;28;20047;-68
2022/04/03 13:14:24;;;;;;;4.00;2.08;;;;;;;;;;4940242;29;20126;-72
2022/04/03 13:16:56;;;;;;;2.55;2.03;;;;;;;;;;4938988;29;20441;-69
2022/04/03 13:19:26;;;;;;;2.03;1.55;;;;;;;;;;4942222;29;20059;-68
2022/04/03 13:21:55;;;;;;;1.88;1.77;;;;;;;;;;4939455;28;20052;-66
2022/04/03 13:24:27;;;;;;;2.00;1.88;;;;;;;;;;4940052;29;20403;-66
2022/04/03 13:26:57;;;;;;;4.30;2.28;;;;;;;;;;4939373;29;20126;-66
2022/04/03 13:29:27;;;;;;;2.63;1.70;;;;;;;;;;4940243;29;20054;-67
2022/04/03 13:31:57;;;;;;;2.33;1.60;;;;;;;;;;4939308;28;20059;-68
2022/04/03 13:34:26;;;;;;;6.38;2.05;;;;;;;;;;4940995;28;20067;-68
2022/04/03 13:36:55;;;;;;;2.65;1.60;;;;;;;;;;4940197;29;20055;-68
2022/04/03 13:39:25;;;;;;;1.80;1.70;;;;;;;;;;4940502;29;20055;-66
2022/04/03 13:41:55;;;;;;;2.30;1.80;;;;;;;;;;4940316;29;20051;-68
2022/04/03 13:44:24;;;;;;;2.08;1.73;;;;;;;;;;4938611;29;20130;-67
2022/04/03 13:46:53;;;;;;;2.72;2.40;;;;;;;;;;4937878;29;20086;-66
2022/04/03 13:49:22;;;;;;;2.15;1.90;;;;;;;;;;4941101;29;20056;-67
2022/04/03 13:51:50;;;;;;;3.78;1.65;;;;;;;;;;4940929;29;20563;-67
2022/04/03 13:54:21;;;;;;;4.57;1.90;;;;;;;;;;4937302;29;20503;-67
2022/04/03 13:56:50;;;;;;;3.92;2.17;;;;;;;;;;4939807;29;20478;-67
2022/04/03 13:59:22;;;;;;;2.75;2.38;;;;;;;;;;4938349;29;20055;-67
2022/04/03 14:01:50;;;;;;;2.40;1.75;;;;;;;;;;4939563;29;20131;-67
2022/04/03 14:04:20;;;;;;;2.95;2.70;;;;;;;;;;4941542;29;20427;-68
2022/04/03 14:06:49;;;;;;;8.02;3.35;;;;;;;;;;4953639;28;20113;-65
2022/04/03 14:09:17;;;;;;;3.42;3.00;;;;;;;;;;4947904;28;20051;-66
2022/04/03 14:11:48;;;;;;;4.53;3.78;;;;;;;;;;4954172;28;20047;-65
2022/04/03 14:14:19;;;;;;;3.45;2.80;;;;;;;;;;4948577;29;20063;-65
2022/04/03 14:16:47;;;;;;;4.35;2.88;;;;;;;;;;4949737;29;20554;-64
2022/04/03 14:19:17;;;;;;;6.00;3.20;;;;;;;;;;4953318;28;20039;-64
2022/04/03 14:21:47;;;;;;;5.03;3.30;;;;;;;;;;4947304;29;20139;-66
2022/04/03 14:24:16;;;;;;;6.28;3.90;;;;;;;;;;4947622;29;20114;-67
2022/04/03 14:26:51;;;;;;;6.80;3.58;;;;;;;;;;4950626;29;20466;-65
2022/04/03 14:29:20;;;;;;;3.97;3.25;;;;;;;;;;4945822;29;20491;-65
2022/04/03 14:31:48;;;;;;;3.33;2.92;;;;;;;;;;4951390;28;20093;-65
2022/04/03 14:34:17;;;;;;;4.18;2.88;;;;;;;;;;4951312;28;20066;-65
2022/04/03 14:36:46;;;;;;;4.10;3.78;;;;;;;;;;4943768;29;20150;-64
2022/04/03 14:39:15;;;;;;;4.03;3.50;;;;;;;;;;4945571;29;20044;-64
2022/04/03 14:41:46;;;;;;;3.70;3.03;;;;;;;;;;4946180;28;20055;-63
2022/04/03 14:44:15;;;;;;;3.45;3.15;;;;;;;;;;4946444;28;20047;-64
2022/04/03 14:46:45;;;;;;;3.72;2.70;;;;;;;;;;4949320;28;20048;-64
2022/04/03 14:49:14;;;;;;;4.93;3.67;;;;;;;;;;4945632;28;20051;-64
2022/04/03 14:51:43;;;;;;;6.13;3.38;;;;;;;;;;4946254;29;20372;-64
2022/04/03 14:54:11;;;;;;;5.30;3.60;;;;;;;;;;4945079;29;20419;-67
2022/04/03 14:56:40;;;;;;;2.92;2.65;;;;;;;;;;4947426;28;20134;-65
2022/04/03 14:59:10;;;;;;;4.20;3.08;;;;;;;;;;4953939;29;20483;-71
2022/04/03 15:01:38;;;;;;;4.25;3.15;;;;;;;;;;4952433;28;20051;-66